sensor_id;sensor_type;location;lat;lon;timestamp;pressure;altitude;pressure_sealevel;temperature;humidity
45074;BME280;31570;51.688;5.860;2022-08-21T00:00:01;101569.34;;;26.55;44.80
45074;BME280;31570;51.688;5.860;2022-08-21T00:02:43;101562.16;;;26.54;44.65
45074;BME280;31570;51.688;5.860;2022-08-21T00:05:09;101574.81;;;26.55;44.68
45074;BME280;31570;51.688;5.860;2022-08-21T00:07:36;101573.63;;;26.58;44.78
45074;BME280;31570;51.688;5.860;2022-08-21T00:10:03;101575.69;;;26.56;44.85
45074;BME280;31570;51.688;5.860;2022-08-21T00:12:30;101573.81;;;26.56;44.65
45074;BME280;31570;51.688;5.860;2022-08-21T00:14:57;101570.38;;;26.54;44.67
45074;BME280;31570;51.688;5.860;2022-08-21T00:17:25;101565.94;;;26.53;44.91
45074;BME280;31570;51.688;5.860;2022-08-21T00:19:51;101571.06;;;26.56;44.75
45074;BME280;31570;51.688;5.860;2022-08-21T00:22:18;101562.16;;;26.54;44.80
45074;BME280;31570;51.688;5.860;2022-08-21T00:24:44;101561.31;;;26.54;44.64
45074;BME280;31570;51.688;5.860;2022-08-21T00:27:11;101560.25;;;26.55;44.86
45074;BME280;31570;51.688;5.860;2022-08-21T00:29:37;101555.63;;;26.55;45.02
45074;BME280;31570;51.688;5.860;2022-08-21T00:32:04;101556.66;;;26.54;44.65
45074;BME280;31570;51.688;5.860;2022-08-21T00:34:30;101556.66;;;26.54;44.81
45074;BME280;31570;51.688;5.860;2022-08-21T00:36:56;101554.97;;;26.53;44.77
45074;BME280;31570;51.688;5.860;2022-08-21T00:39:23;101554.13;;;26.53;44.80
45074;BME280;31570;51.688;5.860;2022-08-21T00:41:50;101551.19;;;26.54;45.03
45074;BME280;31570;51.688;5.860;2022-08-21T00:44:16;101547.75;;;26.52;44.94
45074;BME280;31570;51.688;5.860;2022-08-21T00:46:43;101553.22;;;26.52;44.70
45074;BME280;31570;51.688;5.860;2022-08-21T00:49:09;101546.75;;;26.53;44.74
45074;BME280;31570;51.688;5.860;2022-08-21T00:51:39;101552.88;;;26.55;44.41
45074;BME280;31570;51.688;5.860;2022-08-21T00:54:07;101543.16;;;26.53;44.89
45074;BME280;31570;51.688;5.860;2022-08-21T00:56:44;101546.06;;;26.51;44.67
45074;BME280;31570;51.688;5.860;2022-08-21T00:59:11;101547.75;;;26.52;45.04
45074;BME280;31570;51.688;5.860;2022-08-21T01:01:37;101550.50;;;26.52;44.96
45074;BME280;31570;51.688;5.860;2022-08-21T01:04:04;101546.06;;;26.51;44.66
45074;BME280;31570;51.688;5.860;2022-08-21T01:06:30;101550.69;;;26.51;45.02
45074;BME280;31570;51.688;5.860;2022-08-21T01:08:56;101554.28;;;26.51;44.65
45074;BME280;31570;51.688;5.860;2022-08-21T01:11:23;101547.75;;;26.52;44.65
45074;BME280;31570;51.688;5.860;2022-08-21T01:13:49;101544.34;;;26.50;44.96
45074;BME280;31570;51.688;5.860;2022-08-21T01:16:19;101546.06;;;26.51;44.88
45074;BME280;31570;51.688;5.860;2022-08-21T01:18:46;101557.00;;;26.51;44.53
45074;BME280;31570;51.688;5.860;2022-08-21T01:21:15;101556.16;;;26.51;44.82
45074;BME280;31570;51.688;5.860;2022-08-21T01:23:43;101555.13;;;26.52;44.59
45074;BME280;31570;51.688;5.860;2022-08-21T01:26:11;101548.97;;;26.50;44.50
45074;BME280;31570;51.688;5.860;2022-08-21T01:28:38;101555.47;;;26.49;44.62
45074;BME280;31570;51.688;5.860;2022-08-21T01:31:07;101553.94;;;26.46;44.81
45074;BME280;31570;51.688;5.860;2022-08-21T01:33:34;101553.94;;;26.46;44.80
45074;BME280;31570;51.688;5.860;2022-08-21T01:36:01;101552.19;;;26.45;44.64
45074;BME280;31570;51.688;5.860;2022-08-21T01:38:27;101550.50;;;26.44;44.87
45074;BME280;31570;51.688;5.860;2022-08-21T01:40:56;101543.31;;;26.43;45.04
45074;BME280;31570;51.688;5.860;2022-08-21T01:43:22;101553.25;;;26.44;44.96
45074;BME280;31570;51.688;5.860;2022-08-21T01:46:04;101548.81;;;26.43;44.93
45074;BME280;31570;51.688;5.860;2022-08-21T01:48:31;101545.88;;;26.45;44.96
45074;BME280;31570;51.688;5.860;2022-08-21T01:50:57;101547.75;;;26.44;44.71
45074;BME280;31570;51.688;5.860;2022-08-21T01:53:24;101545.88;;;26.45;44.95
45074;BME280;31570;51.688;5.860;2022-08-21T01:55:58;101544.81;;;26.46;44.70
45074;BME280;31570;51.688;5.860;2022-08-21T01:58:25;101553.25;;;26.44;44.58
45074;BME280;31570;51.688;5.860;2022-08-21T02:00:51;101549.81;;;26.42;45.05
45074;BME280;31570;51.688;5.860;2022-08-21T02:03:18;101549.66;;;26.44;44.73
45074;BME280;31570;51.688;5.860;2022-08-21T02:06:00;101547.75;;;26.44;44.87
45074;BME280;31570;51.688;5.860;2022-08-21T02:08:27;101545.22;;;26.43;44.81
45074;BME280;31570;51.688;5.860;2022-08-21T02:10:54;101542.47;;;26.43;44.59
45074;BME280;31570;51.688;5.860;2022-08-21T02:13:20;101541.59;;;26.42;44.59
45074;BME280;31570;51.688;5.860;2022-08-21T02:15:47;101538.00;;;26.42;44.58
45074;BME280;31570;51.688;5.860;2022-08-21T02:18:14;101538.19;;;26.40;44.63
45074;BME280;31570;51.688;5.860;2022-08-21T02:20:47;101531.84;;;26.40;45.05
45074;BME280;31570;51.688;5.860;2022-08-21T02:23:20;101534.75;;;26.38;44.84
45074;BME280;31570;51.688;5.860;2022-08-21T02:25:59;101523.97;;;26.37;44.89
45074;BME280;31570;51.688;5.860;2022-08-21T02:28:26;101525.88;;;26.36;44.78
45074;BME280;31570;51.688;5.860;2022-08-21T02:30:53;101531.34;;;26.36;45.20
45074;BME280;31570;51.688;5.860;2022-08-21T02:33:20;101527.56;;;26.37;44.75
45074;BME280;31570;51.688;5.860;2022-08-21T02:35:47;101522.25;;;26.36;44.68
45074;BME280;31570;51.688;5.860;2022-08-21T02:38:18;101520.38;;;26.36;44.73
45074;BME280;31570;51.688;5.860;2022-08-21T02:40:46;101529.63;;;26.35;44.89
45074;BME280;31570;51.688;5.860;2022-08-21T02:43:13;101518.66;;;26.35;44.90
45074;BME280;31570;51.688;5.860;2022-08-21T02:45:41;101517.81;;;26.34;44.85
45074;BME280;31570;51.688;5.860;2022-08-21T02:48:09;101520.53;;;26.34;44.62
45074;BME280;31570;51.688;5.860;2022-08-21T02:50:37;101518.66;;;26.35;45.12
45074;BME280;31570;51.688;5.860;2022-08-21T02:53:05;101515.06;;;26.34;45.00
45074;BME280;31570;51.688;5.860;2022-08-21T02:55:32;101511.47;;;26.34;44.93
45074;BME280;31570;51.688;5.860;2022-08-21T02:57:59;101516.09;;;26.33;44.74
45074;BME280;31570;51.688;5.860;2022-08-21T03:00:26;101516.94;;;26.34;45.02
45074;BME280;31570;51.688;5.860;2022-08-21T03:02:53;101510.44;;;26.35;44.71
45074;BME280;31570;51.688;5.860;2022-08-21T03:05:22;101511.47;;;26.34;44.91
45074;BME280;31570;51.688;5.860;2022-08-21T03:07:49;101509.78;;;26.33;44.52
45074;BME280;31570;51.688;5.860;2022-08-21T03:10:16;101500.50;;;26.34;44.83
45074;BME280;31570;51.688;5.860;2022-08-21T03:12:42;101506.00;;;26.34;44.91
45074;BME280;31570;51.688;5.860;2022-08-21T03:15:10;101501.56;;;26.33;44.63
45074;BME280;31570;51.688;5.860;2022-08-21T03:17:37;101500.50;;;26.34;44.75
45074;BME280;31570;51.688;5.860;2022-08-21T03:20:04;101498.63;;;26.34;44.87
45074;BME280;31570;51.688;5.860;2022-08-21T03:22:32;101496.72;;;26.35;44.96
45074;BME280;31570;51.688;5.860;2022-08-21T03:24:58;101502.22;;;26.35;44.50
45074;BME280;31570;51.688;5.860;2022-08-21T03:27:26;101506.84;;;26.34;44.63
45074;BME280;31570;51.688;5.860;2022-08-21T03:29:54;101503.44;;;26.32;44.61
45074;BME280;31570;51.688;5.860;2022-08-21T03:32:21;101497.06;;;26.32;44.92
45074;BME280;31570;51.688;5.860;2022-08-21T03:34:48;101512.50;;;26.33;44.93
45074;BME280;31570;51.688;5.860;2022-08-21T03:37:14;101503.44;;;26.32;44.91
45074;BME280;31570;51.688;5.860;2022-08-21T03:39:41;101497.06;;;26.32;44.75
45074;BME280;31570;51.688;5.860;2022-08-21T03:42:08;101497.44;;;26.29;44.93
45074;BME280;31570;51.688;5.860;2022-08-21T03:44:34;101502.06;;;26.28;44.94
45074;BME280;31570;51.688;5.860;2022-08-21T03:47:01;101492.97;;;26.28;44.59
45074;BME280;31570;51.688;5.860;2022-08-21T03:49:28;101502.25;;;26.27;44.53
45074;BME280;31570;51.688;5.860;2022-08-21T03:51:55;101498.66;;;26.26;44.60
45074;BME280;31570;51.688;5.860;2022-08-21T03:54:25;101500.53;;;26.26;44.90
45074;BME280;31570;51.688;5.860;2022-08-21T03:56:54;101497.81;;;26.26;44.57
45074;BME280;31570;51.688;5.860;2022-08-21T03:59:20;101507.88;;;26.25;44.91
45074;BME280;31570;51.688;5.860;2022-08-21T04:01:58;101500.69;;;26.24;44.62
45074;BME280;31570;51.688;5.860;2022-08-21T04:04:25;101505.84;;;26.27;44.94
45074;BME280;31570;51.688;5.860;2022-08-21T04:06:51;101499.50;;;26.27;44.85
45074;BME280;31570;51.688;5.860;2022-08-21T04:09:18;101496.06;;;26.25;44.89
45074;BME280;31570;51.688;5.860;2022-08-21T04:11:45;101502.75;;;26.22;44.72
45074;BME280;31570;51.688;5.860;2022-08-21T04:14:13;101505.69;;;26.21;44.98
45074;BME280;31570;51.688;5.860;2022-08-21T04:16:40;101501.25;;;26.20;44.65
45074;BME280;31570;51.688;5.860;2022-08-21T04:19:07;101494.72;;;26.21;44.64
45074;BME280;31570;51.688;5.860;2022-08-21T04:21:35;101490.28;;;26.20;45.02
45074;BME280;31570;51.688;5.860;2022-08-21T04:24:02;101491.97;;;26.21;44.65
45074;BME280;31570;51.688;5.860;2022-08-21T04:26:29;101492.16;;;26.19;44.99
45074;BME280;31570;51.688;5.860;2022-08-21T04:28:57;101494.72;;;26.21;44.95
45074;BME280;31570;51.688;5.860;2022-08-21T04:31:23;101501.06;;;26.21;44.52
45074;BME280;31570;51.688;5.860;2022-08-21T04:33:50;101501.06;;;26.21;44.97
45074;BME280;31570;51.688;5.860;2022-08-21T04:36:17;101498.50;;;26.20;44.83
45074;BME280;31570;51.688;5.860;2022-08-21T04:38:48;101498.50;;;26.20;44.91
45074;BME280;31570;51.688;5.860;2022-08-21T04:41:14;101500.41;;;26.19;44.57
45074;BME280;31570;51.688;5.860;2022-08-21T04:43:41;101507.56;;;26.20;44.68
45074;BME280;31570;51.688;5.860;2022-08-21T04:46:07;101496.78;;;26.19;44.56
45074;BME280;31570;51.688;5.860;2022-08-21T04:48:38;101495.06;;;26.18;45.10
45074;BME280;31570;51.688;5.860;2022-08-21T04:51:06;101497.16;;;26.16;44.63
45074;BME280;31570;51.688;5.860;2022-08-21T04:56:08;101500.56;;;26.18;44.74
45074;BME280;31570;51.688;5.860;2022-08-21T04:58:35;101508.63;;;26.19;44.90
45074;BME280;31570;51.688;5.860;2022-08-21T05:01:03;101520.44;;;26.20;44.65
45074;BME280;31570;51.688;5.860;2022-08-21T05:03:32;101513.22;;;26.19;44.89
45074;BME280;31570;51.688;5.860;2022-08-21T05:05:59;101524.19;;;26.19;44.58
45074;BME280;31570;51.688;5.860;2022-08-21T05:08:26;101525.91;;;26.20;44.57
45074;BME280;31570;51.688;5.860;2022-08-21T05:10:53;101524.19;;;26.19;44.57
45074;BME280;31570;51.688;5.860;2022-08-21T05:13:25;101524.19;;;26.19;44.79
45074;BME280;31570;51.688;5.860;2022-08-21T05:15:52;101526.91;;;26.19;44.80
45074;BME280;31570;51.688;5.860;2022-08-21T05:18:18;101522.31;;;26.19;44.47
45074;BME280;31570;51.688;5.860;2022-08-21T05:20:45;101521.28;;;26.20;44.59
45074;BME280;31570;51.688;5.860;2022-08-21T05:23:12;101519.56;;;26.19;44.68
45074;BME280;31570;51.688;5.860;2022-08-21T05:25:40;101524.19;;;26.19;44.94
45074;BME280;31570;51.688;5.860;2022-08-21T05:28:07;101522.13;;;26.21;44.96
45074;BME280;31570;51.688;5.860;2022-08-21T05:30:33;101528.66;;;26.20;44.71
45074;BME280;31570;51.688;5.860;2022-08-21T05:33:00;101530.69;;;26.18;44.78
45074;BME280;31570;51.688;5.860;2022-08-21T05:35:27;101527.94;;;26.18;44.72
45074;BME280;31570;51.688;5.860;2022-08-21T05:37:55;101532.25;;;26.20;44.97
45074;BME280;31570;51.688;5.860;2022-08-21T05:40:21;101531.38;;;26.20;44.81
45074;BME280;31570;51.688;5.860;2022-08-21T05:42:49;101536.16;;;26.18;44.45
45074;BME280;31570;51.688;5.860;2022-08-21T05:45:21;101538.25;;;26.16;44.81
45074;BME280;31570;51.688;5.860;2022-08-21T05:48:12;101543.34;;;26.19;44.92
45074;BME280;31570;51.688;5.860;2022-08-21T05:50:38;101539.25;;;26.23;44.46
45074;BME280;31570;51.688;5.860;2022-08-21T05:53:05;101548.50;;;26.30;44.74
45074;BME280;31570;51.688;5.860;2022-08-21T05:55:33;101551.03;;;26.31;44.62
45074;BME280;31570;51.688;5.860;2022-08-21T05:57:59;101551.53;;;26.35;44.29
45074;BME280;31570;51.688;5.860;2022-08-21T06:00:26;101543.66;;;26.32;44.50
45074;BME280;31570;51.688;5.860;2022-08-21T06:02:52;101548.16;;;26.33;44.68
45074;BME280;31570;51.688;5.860;2022-08-21T06:05:18;101546.41;;;26.32;44.83
45074;BME280;31570;51.688;5.860;2022-08-21T06:08:02;101537.19;;;26.33;44.67
45074;BME280;31570;51.688;5.860;2022-08-21T06:10:29;101538.88;;;26.34;44.70
45074;BME280;31570;51.688;5.860;2022-08-21T06:12:55;101544.16;;;26.36;44.74
45074;BME280;31570;51.688;5.860;2022-08-21T06:15:22;101539.72;;;26.34;44.87
45074;BME280;31570;51.688;5.860;2022-08-21T06:17:48;101541.63;;;26.34;44.55
45074;BME280;31570;51.688;5.860;2022-08-21T06:20:14;101541.44;;;26.36;44.72
45074;BME280;31570;51.688;5.860;2022-08-21T06:22:41;101545.72;;;26.38;44.50
45074;BME280;31570;51.688;5.860;2022-08-21T06:25:07;101531.16;;;26.38;44.71
45074;BME280;31570;51.688;5.860;2022-08-21T06:27:35;101545.72;;;26.38;44.74
45074;BME280;31570;51.688;5.860;2022-08-21T06:30:02;101547.59;;;26.38;44.77
45074;BME280;31570;51.688;5.860;2022-08-21T06:32:28;101549.66;;;26.36;44.72
45074;BME280;31570;51.688;5.860;2022-08-21T06:34:55;101553.94;;;26.38;44.70
45074;BME280;31570;51.688;5.860;2022-08-21T06:37:21;101546.91;;;26.36;44.31
45074;BME280;31570;51.688;5.860;2022-08-21T06:39:48;101546.75;;;26.37;44.51
45074;BME280;31570;51.688;5.860;2022-08-21T06:42:15;101544.91;;;26.29;44.57
45074;BME280;31570;51.688;5.860;2022-08-21T06:44:43;101544.75;;;26.23;44.41
45074;BME280;31570;51.688;5.860;2022-08-21T06:47:09;101547.66;;;26.13;44.31
45074;BME280;31570;51.688;5.860;2022-08-21T06:49:36;101538.75;;;26.11;44.35
45074;BME280;31570;51.688;5.860;2022-08-21T06:52:03;101546.81;;;26.13;44.45
45074;BME280;31570;51.688;5.860;2022-08-21T06:54:29;101538.25;;;26.16;44.63
45074;BME280;31570;51.688;5.860;2022-08-21T06:56:56;101541.00;;;26.16;44.49
45074;BME280;31570;51.688;5.860;2022-08-21T06:59:23;101543.88;;;26.14;44.38
45074;BME280;31570;51.688;5.860;2022-08-21T07:01:49;101545.59;;;26.15;44.47
45074;BME280;31570;51.688;5.860;2022-08-21T07:04:15;101544.06;;;26.21;44.49
45074;BME280;31570;51.688;5.860;2022-08-21T07:06:42;101551.06;;;26.23;44.47
45074;BME280;31570;51.688;5.860;2022-08-21T07:09:08;101551.94;;;26.16;44.47
45074;BME280;31570;51.688;5.860;2022-08-21T07:11:36;101548.88;;;26.10;44.43
45074;BME280;31570;51.688;5.860;2022-08-21T07:14:12;101543.72;;;26.07;44.82
45074;BME280;31570;51.688;5.860;2022-08-21T07:16:46;101542.03;;;26.06;44.56
45074;BME280;31570;51.688;5.860;2022-08-21T07:19:12;101539.28;;;26.06;44.77
45074;BME280;31570;51.688;5.860;2022-08-21T07:21:38;101540.66;;;26.10;44.35
45074;BME280;31570;51.688;5.860;2022-08-21T07:24:05;101541.00;;;26.16;44.66
45074;BME280;31570;51.688;5.860;2022-08-21T07:26:31;101553.66;;;26.17;44.60
45074;BME280;31570;51.688;5.860;2022-08-21T07:28:58;101545.09;;;26.20;44.35
45074;BME280;31570;51.688;5.860;2022-08-21T07:31:24;101546.09;;;26.19;44.43
45074;BME280;31570;51.688;5.860;2022-08-21T07:33:51;101544.06;;;26.21;44.41
45074;BME280;31570;51.688;5.860;2022-08-21T07:36:17;101540.47;;;26.20;44.19
45074;BME280;31570;51.688;5.860;2022-08-21T07:38:44;101540.63;;;26.19;44.63
45074;BME280;31570;51.688;5.860;2022-08-21T07:41:14;101543.03;;;26.14;44.78
45074;BME280;31570;51.688;5.860;2022-08-21T07:43:41;101537.91;;;26.10;44.63
45074;BME280;31570;51.688;5.860;2022-08-21T07:46:11;101538.94;;;26.09;44.83
45074;BME280;31570;51.688;5.860;2022-08-21T07:48:38;101539.78;;;26.10;44.89
45074;BME280;31570;51.688;5.860;2022-08-21T07:51:09;101537.91;;;26.10;44.72
45074;BME280;31570;51.688;5.860;2022-08-21T07:53:36;101539.44;;;26.13;45.01
45074;BME280;31570;51.688;5.860;2022-08-21T07:56:03;101541.50;;;26.11;44.71
45074;BME280;31570;51.688;5.860;2022-08-21T07:58:31;101537.91;;;26.10;44.96
45074;BME280;31570;51.688;5.860;2022-08-21T08:00:58;101536.88;;;26.12;45.02
45074;BME280;31570;51.688;5.860;2022-08-21T08:03:25;101542.84;;;26.15;45.07
45074;BME280;31570;51.688;5.860;2022-08-21T08:05:54;101538.91;;;26.18;44.92
45074;BME280;31570;51.688;5.860;2022-08-21T08:08:20;101545.44;;;26.17;44.67
45074;BME280;31570;51.688;5.860;2022-08-21T08:10:47;101543.72;;;26.16;45.13
45074;BME280;31570;51.688;5.860;2022-08-21T08:13:15;101540.13;;;26.15;44.81
45074;BME280;31570;51.688;5.860;2022-08-21T08:15:42;101544.94;;;26.13;44.95
45074;BME280;31570;51.688;5.860;2022-08-21T08:18:08;101540.66;;;26.10;45.12
45074;BME280;31570;51.688;5.860;2022-08-21T08:20:35;101534.47;;;26.08;45.11
45074;BME280;31570;51.688;5.860;2022-08-21T08:23:01;101527.78;;;26.11;45.13
45074;BME280;31570;51.688;5.860;2022-08-21T08:25:29;101533.13;;;26.13;45.52
45074;BME280;31570;51.688;5.860;2022-08-21T08:28:02;101544.75;;;26.15;45.18
45074;BME280;31570;51.688;5.860;2022-08-21T08:30:42;101534.13;;;26.12;45.50
45074;BME280;31570;51.688;5.860;2022-08-21T08:33:08;101534.31;;;26.10;45.58
45074;BME280;31570;51.688;5.860;2022-08-21T08:35:35;101534.97;;;26.12;45.49
45074;BME280;31570;51.688;5.860;2022-08-21T08:38:04;101527.94;;;26.18;45.47
45074;BME280;31570;51.688;5.860;2022-08-21T08:43:13;101523.50;;;26.17;45.28
45074;BME280;31570;51.688;5.860;2022-08-21T08:45:42;101519.06;;;26.16;45.68
45074;BME280;31570;51.688;5.860;2022-08-21T08:48:10;101516.50;;;26.14;45.60
45074;BME280;31570;51.688;5.860;2022-08-21T08:50:41;101514.09;;;26.11;45.41
45074;BME280;31570;51.688;5.860;2022-08-21T08:53:16;101516.84;;;26.11;45.50
45074;BME280;31570;51.688;5.860;2022-08-21T08:55:44;101513.75;;;26.14;45.73
45074;BME280;31570;51.688;5.860;2022-08-21T08:58:12;101506.38;;;26.15;45.73
45074;BME280;31570;51.688;5.860;2022-08-21T09:00:43;101504.69;;;26.14;45.73
45074;BME280;31570;51.688;5.860;2022-08-21T09:03:13;101503.47;;;26.16;45.26
45074;BME280;31570;51.688;5.860;2022-08-21T09:05:41;101506.03;;;26.18;45.49
45074;BME280;31570;51.688;5.860;2022-08-21T09:26:24;101494.38;;;26.24;45.19
45074;BME280;31570;51.688;5.860;2022-08-21T09:28:53;101493.19;;;26.26;45.30
45074;BME280;31570;51.688;5.860;2022-08-21T09:31:31;101488.19;;;26.30;45.33
45074;BME280;31570;51.688;5.860;2022-08-21T09:33:59;101488.19;;;26.30;45.28
45074;BME280;31570;51.688;5.860;2022-08-21T09:36:30;101486.13;;;26.32;45.25
45074;BME280;31570;51.688;5.860;2022-08-21T09:38:57;101492.97;;;26.36;45.14
45074;BME280;31570;51.688;5.860;2022-08-21T09:41:31;101496.38;;;26.38;44.72
45074;BME280;31570;51.688;5.860;2022-08-21T09:43:57;101498.25;;;26.38;44.77
45074;BME280;31570;51.688;5.860;2022-08-21T09:46:25;101499.13;;;26.38;45.02
45074;BME280;31570;51.688;5.860;2022-08-21T09:48:53;101501.84;;;26.38;44.53
45074;BME280;31570;51.688;5.860;2022-08-21T09:51:21;101501.84;;;26.38;44.87
45074;BME280;31570;51.688;5.860;2022-08-21T09:53:49;101503.75;;;26.38;44.85
45074;BME280;31570;51.688;5.860;2022-08-21T09:56:19;101503.41;;;26.41;44.88
45074;BME280;31570;51.688;5.860;2022-08-21T09:59:18;101499.13;;;26.38;44.95
45074;BME280;31570;51.688;5.860;2022-08-21T10:01:48;101504.44;;;26.40;44.56
45074;BME280;31570;51.688;5.860;2022-08-21T10:04:15;101510.78;;;26.40;44.82
45074;BME280;31570;51.688;5.860;2022-08-21T10:06:45;101498.97;;;26.40;44.71
45074;BME280;31570;51.688;5.860;2022-08-21T10:09:16;101494.97;;;26.42;44.52
45074;BME280;31570;51.688;5.860;2022-08-21T10:11:58;101503.91;;;26.44;44.86
45074;BME280;31570;51.688;5.860;2022-08-21T10:20:07;101504.94;;;26.43;44.69
45074;BME280;31570;51.688;5.860;2022-08-21T10:22:42;101500.13;;;26.45;44.61
45074;BME280;31570;51.688;5.860;2022-08-21T10:25:17;101495.34;;;26.47;44.50
45074;BME280;31570;51.688;5.860;2022-08-21T10:28:06;101490.72;;;26.48;44.54
45074;BME280;31570;51.688;5.860;2022-08-21T10:36:05;101497.06;;;26.48;44.45
45074;BME280;31570;51.688;5.860;2022-08-21T10:41:59;101495.00;;;26.50;44.38
45074;BME280;31570;51.688;5.860;2022-08-21T10:44:30;101494.16;;;26.50;44.36
45074;BME280;31570;51.688;5.860;2022-08-21T10:47:24;101502.19;;;26.51;44.12
45074;BME280;31570;51.688;5.860;2022-08-21T10:50:04;101490.38;;;26.51;44.42
45074;BME280;31570;51.688;5.860;2022-08-21T10:52:53;101491.22;;;26.51;44.04
45074;BME280;31570;51.688;5.860;2022-08-21T10:55:25;101500.13;;;26.53;44.14
45074;BME280;31570;51.688;5.860;2022-08-21T10:58:08;101487.28;;;26.54;44.13
45074;BME280;31570;51.688;5.860;2022-08-21T11:03:11;101485.38;;;26.54;43.67
45074;BME280;31570;51.688;5.860;2022-08-21T11:05:40;101490.88;;;26.54;43.88
45074;BME280;31570;51.688;5.860;2022-08-21T11:08:12;101481.59;;;26.55;43.66
45074;BME280;31570;51.688;5.860;2022-08-21T11:10:42;101497.19;;;26.55;43.89
45074;BME280;31570;51.688;5.860;2022-08-21T11:14:08;101496.34;;;26.54;43.97
45074;BME280;31570;51.688;5.860;2022-08-21T11:19:10;101482.28;;;26.58;43.42
45074;BME280;31570;51.688;5.860;2022-08-21T11:24:17;101485.03;;;26.58;43.71
45074;BME280;31570;51.688;5.860;2022-08-21T11:26:51;101485.03;;;26.58;43.76
45074;BME280;31570;51.688;5.860;2022-08-21T11:29:30;101486.06;;;26.56;43.73
45074;BME280;31570;51.688;5.860;2022-08-21T11:40:05;101477.84;;;26.56;43.32
45074;BME280;31570;51.688;5.860;2022-08-21T11:42:45;101484.19;;;26.57;43.43
45074;BME280;31570;51.688;5.860;2022-08-21T11:45:31;101470.28;;;26.59;43.27
45074;BME280;31570;51.688;5.860;2022-08-21T11:50:44;101473.69;;;26.61;43.32
45074;BME280;31570;51.688;5.860;2022-08-21T11:53:15;101469.06;;;26.61;43.47
45074;BME280;31570;51.688;5.860;2022-08-21T11:55:51;101470.28;;;26.59;43.22
45074;BME280;31570;51.688;5.860;2022-08-21T11:58:22;101466.69;;;26.58;43.20
45074;BME280;31570;51.688;5.860;2022-08-21T12:01:24;101470.97;;;26.61;43.24
45074;BME280;31570;51.688;5.860;2022-08-21T12:06:37;101473.69;;;26.61;42.80
45074;BME280;31570;51.688;5.860;2022-08-21T12:09:07;101473.69;;;26.61;42.58
45074;BME280;31570;51.688;5.860;2022-08-21T12:11:48;101480.88;;;26.62;42.65
45074;BME280;31570;51.688;5.860;2022-08-21T12:14:18;101491.84;;;26.62;42.32
45074;BME280;31570;51.688;5.860;2022-08-21T12:16:46;101480.88;;;26.62;42.50
45074;BME280;31570;51.688;5.860;2022-08-21T12:19:29;101489.81;;;26.64;42.33
45074;BME280;31570;51.688;5.860;2022-08-21T12:22:07;101488.09;;;26.63;42.61
45074;BME280;31570;51.688;5.860;2022-08-21T12:29:47;101481.56;;;26.64;42.37
45074;BME280;31570;51.688;5.860;2022-08-21T12:34:42;101487.06;;;26.64;42.11
45074;BME280;31570;51.688;5.860;2022-08-21T12:37:16;101477.13;;;26.63;41.78
45074;BME280;31570;51.688;5.860;2022-08-21T12:39:45;101488.75;;;26.65;41.50
45074;BME280;31570;51.688;5.860;2022-08-21T12:42:20;101487.06;;;26.64;41.86
45074;BME280;31570;51.688;5.860;2022-08-21T12:44:50;101487.22;;;26.62;42.16
45074;BME280;31570;51.688;5.860;2022-08-21T12:47:27;101492.72;;;26.62;41.87
45074;BME280;31570;51.688;5.860;2022-08-21T12:50:01;101483.63;;;26.62;41.92
45074;BME280;31570;51.688;5.860;2022-08-21T12:52:35;101488.09;;;26.63;41.91
45074;BME280;31570;51.688;5.860;2022-08-21T12:55:05;101478.84;;;26.64;41.63
45074;BME280;31570;51.688;5.860;2022-08-21T12:57:31;101471.47;;;26.64;41.52
45074;BME280;31570;51.688;5.860;2022-08-21T13:00:03;101471.25;;;26.66;41.23
45074;BME280;31570;51.688;5.860;2022-08-21T13:02:32;101477.63;;;26.66;41.34
45074;BME280;31570;51.688;5.860;2022-08-21T14:38:58;101441.72;;;26.76;40.43
45074;BME280;31570;51.688;5.860;2022-08-21T14:41:49;101439.88;;;26.76;40.24
45074;BME280;31570;51.688;5.860;2022-08-21T15:10:12;101442.25;;;26.79;39.43
45074;BME280;31570;51.688;5.860;2022-08-21T15:17:19;101451.97;;;26.82;39.80
45074;BME280;31570;51.688;5.860;2022-08-21T15:28:34;101450.09;;;26.83;39.57
45074;BME280;31570;51.688;5.860;2022-08-21T17:24:24;101445.34;;;26.76;41.47
45074;BME280;31570;51.688;5.860;2022-08-21T18:12:21;101459.41;;;26.73;42.10
45074;BME280;31570;51.688;5.860;2022-08-21T18:14:47;101454.09;;;26.72;42.24
45074;BME280;31570;51.688;5.860;2022-08-21T18:17:16;101461.31;;;26.73;42.61
45074;BME280;31570;51.688;5.860;2022-08-21T18:19:43;101467.66;;;26.73;42.44
45074;BME280;31570;51.688;5.860;2022-08-21T18:22:14;101456.69;;;26.73;42.20
45074;BME280;31570;51.688;5.860;2022-08-21T18:24:40;101462.16;;;26.73;42.63
45074;BME280;31570;51.688;5.860;2022-08-21T18:27:08;101462.31;;;26.72;42.57
45074;BME280;31570;51.688;5.860;2022-08-21T18:29:35;101467.81;;;26.72;42.78
45074;BME280;31570;51.688;5.860;2022-08-21T18:32:12;101473.13;;;26.73;42.86
45074;BME280;31570;51.688;5.860;2022-08-21T18:34:57;101475.69;;;26.75;42.74
45074;BME280;31570;51.688;5.860;2022-08-21T18:37:24;101472.28;;;26.73;42.77
45074;BME280;31570;51.688;5.860;2022-08-21T18:39:50;101476.03;;;26.72;42.75
45074;BME280;31570;51.688;5.860;2022-08-21T18:42:17;101475.03;;;26.73;42.64
45074;BME280;31570;51.688;5.860;2022-08-21T18:44:44;101476.53;;;26.75;42.63
45074;BME280;31570;51.688;5.860;2022-08-21T18:47:18;101473.78;;;26.75;42.94
45074;BME280;31570;51.688;5.860;2022-08-21T18:49:45;101467.66;;;26.73;43.03
45074;BME280;31570;51.688;5.860;2022-08-21T18:52:12;101471.25;;;26.74;42.79
45074;BME280;31570;51.688;5.860;2022-08-21T18:54:45;101481.16;;;26.75;43.03
45074;BME280;31570;51.688;5.860;2022-08-21T18:57:14;101480.13;;;26.76;43.17
45074;BME280;31570;51.688;5.860;2022-08-21T18:59:41;101478.25;;;26.76;43.12